sensor_id;sensor_type;location;lat;lon;timestamp;temperature;humidity
2633;DHT22;1326;48.692;16.870;2022-07-05T00:00:41;21.70;99.90
2633;DHT22;1326;48.692;16.870;2022-07-05T00:03:08;21.70;99.90
2633;DHT22;1326;48.692;16.870;2022-07-05T00:05:37;21.70;99.90
2633;DHT22;1326;48.692;16.870;2022-07-05T00:08:05;21.70;99.90
2633;DHT22;1326;48.692;16.870;2022-07-05T00:10:34;21.70;99.90
2633;DHT22;1326;48.692;16.870;2022-07-05T00:13:04;21.60;99.90
2633;DHT22;1326;48.692;16.870;2022-07-05T00:15:32;21.60;99.90
2633;DHT22;1326;48.692;16.870;2022-07-05T00:18:00;21.60;99.90
2633;DHT22;1326;48.692;16.870;2022-07-05T00:20:28;21.60;99.90
2633;DHT22;1326;48.692;16.870;2022-07-05T00:22:55;21.60;99.90
2633;DHT22;1326;48.692;16.870;2022-07-05T00:25:23;21.60;99.90
2633;DHT22;1326;48.692;16.870;2022-07-05T00:27:51;21.60;99.90
2633;DHT22;1326;48.692;16.870;2022-07-05T00:30:20;21.60;99.90
2633;DHT22;1326;48.692;16.870;2022-07-05T00:32:48;21.50;99.90
2633;DHT22;1326;48.692;16.870;2022-07-05T00:35:15;21.60;99.90
2633;DHT22;1326;48.692;16.870;2022-07-05T00:37:43;21.50;99.90
2633;DHT22;1326;48.692;16.870;2022-07-05T00:40:10;21.60;99.90
2633;DHT22;1326;48.692;16.870;2022-07-05T00:42:38;21.60;99.90
2633;DHT22;1326;48.692;16.870;2022-07-05T00:45:07;21.60;99.90
2633;DHT22;1326;48.692;16.870;2022-07-05T00:47:35;21.60;99.90
2633;DHT22;1326;48.692;16.870;2022-07-05T00:50:03;21.60;99.90
2633;DHT22;1326;48.692;16.870;2022-07-05T00:52:31;21.60;99.90
2633;DHT22;1326;48.692;16.870;2022-07-05T00:54:58;21.60;99.90
2633;DHT22;1326;48.692;16.870;2022-07-05T00:57:26;21.50;99.90
2633;DHT22;1326;48.692;16.870;2022-07-05T00:59:54;21.50;99.90
2633;DHT22;1326;48.692;16.870;2022-07-05T01:02:21;21.50;99.90
2633;DHT22;1326;48.692;16.870;2022-07-05T01:04:50;21.50;99.90
2633;DHT22;1326;48.692;16.870;2022-07-05T01:07:22;21.50;99.90
2633;DHT22;1326;48.692;16.870;2022-07-05T01:09:50;21.40;99.90
2633;DHT22;1326;48.692;16.870;2022-07-05T01:12:18;21.30;99.90
2633;DHT22;1326;48.692;16.870;2022-07-05T01:14:46;21.40;99.90
2633;DHT22;1326;48.692;16.870;2022-07-05T01:17:14;21.40;99.90
2633;DHT22;1326;48.692;16.870;2022-07-05T01:19:42;21.40;99.90
2633;DHT22;1326;48.692;16.870;2022-07-05T01:22:18;21.40;99.90
2633;DHT22;1326;48.692;16.870;2022-07-05T01:24:47;21.30;99.90
2633;DHT22;1326;48.692;16.870;2022-07-05T01:27:16;21.20;99.90
2633;DHT22;1326;48.692;16.870;2022-07-05T01:29:44;21.10;99.90
2633;DHT22;1326;48.692;16.870;2022-07-05T01:32:12;21.10;99.90
2633;DHT22;1326;48.692;16.870;2022-07-05T01:34:42;21.20;99.90
2633;DHT22;1326;48.692;16.870;2022-07-05T01:37:10;21.10;99.90
2633;DHT22;1326;48.692;16.870;2022-07-05T01:39:38;21.10;99.90
2633;DHT22;1326;48.692;16.870;2022-07-05T01:42:06;21.10;99.90
2633;DHT22;1326;48.692;16.870;2022-07-05T01:44:34;21.10;99.90
2633;DHT22;1326;48.692;16.870;2022-07-05T01:47:06;21.10;99.90
2633;DHT22;1326;48.692;16.870;2022-07-05T01:49:40;21.10;99.90
2633;DHT22;1326;48.692;16.870;2022-07-05T01:52:12;21.10;99.90
2633;DHT22;1326;48.692;16.870;2022-07-05T01:54:40;21.10;99.90
2633;DHT22;1326;48.692;16.870;2022-07-05T01:57:08;21.10;99.90
2633;DHT22;1326;48.692;16.870;2022-07-05T01:59:37;21.10;99.90
2633;DHT22;1326;48.692;16.870;2022-07-05T02:02:06;21.10;99.90
2633;DHT22;1326;48.692;16.870;2022-07-05T02:04:35;21.10;99.90
2633;DHT22;1326;48.692;16.870;2022-07-05T02:07:07;21.10;99.90
2633;DHT22;1326;48.692;16.870;2022-07-05T02:09:35;21.00;99.90
2633;DHT22;1326;48.692;16.870;2022-07-05T02:12:04;21.00;99.90
2633;DHT22;1326;48.692;16.870;2022-07-05T02:14:32;21.00;99.90
2633;DHT22;1326;48.692;16.870;2022-07-05T02:17:00;21.00;99.90
2633;DHT22;1326;48.692;16.870;2022-07-05T02:19:28;20.90;99.90
2633;DHT22;1326;48.692;16.870;2022-07-05T02:21:55;20.90;99.90
2633;DHT22;1326;48.692;16.870;2022-07-05T02:24:23;20.90;99.90
2633;DHT22;1326;48.692;16.870;2022-07-05T02:26:51;20.80;99.90
2633;DHT22;1326;48.692;16.870;2022-07-05T02:29:18;20.80;99.90
2633;DHT22;1326;48.692;16.870;2022-07-05T02:31:46;20.80;99.90
2633;DHT22;1326;48.692;16.870;2022-07-05T02:34:13;20.70;99.90
2633;DHT22;1326;48.692;16.870;2022-07-05T02:36:41;20.80;99.90
2633;DHT22;1326;48.692;16.870;2022-07-05T02:39:09;20.80;99.90
2633;DHT22;1326;48.692;16.870;2022-07-05T02:41:36;20.80;99.90
2633;DHT22;1326;48.692;16.870;2022-07-05T02:44:04;20.90;99.90
2633;DHT22;1326;48.692;16.870;2022-07-05T02:46:32;20.90;99.90
2633;DHT22;1326;48.692;16.870;2022-07-05T02:48:59;20.90;99.90
2633;DHT22;1326;48.692;16.870;2022-07-05T02:51:27;20.90;99.90
2633;DHT22;1326;48.692;16.870;2022-07-05T02:53:54;20.80;99.90
2633;DHT22;1326;48.692;16.870;2022-07-05T02:56:22;20.80;99.90
2633;DHT22;1326;48.692;16.870;2022-07-05T02:58:49;20.90;99.90
2633;DHT22;1326;48.692;16.870;2022-07-05T03:01:17;20.80;99.90
2633;DHT22;1326;48.692;16.870;2022-07-05T03:03:44;20.90;99.90
2633;DHT22;1326;48.692;16.870;2022-07-05T03:06:12;20.90;99.90
2633;DHT22;1326;48.692;16.870;2022-07-05T03:08:41;20.90;99.90
2633;DHT22;1326;48.692;16.870;2022-07-05T03:11:08;20.80;99.90
2633;DHT22;1326;48.692;16.870;2022-07-05T03:13:36;20.80;99.90
2633;DHT22;1326;48.692;16.870;2022-07-05T03:16:04;20.70;99.90
2633;DHT22;1326;48.692;16.870;2022-07-05T03:18:32;20.60;99.90
2633;DHT22;1326;48.692;16.870;2022-07-05T03:20:59;20.60;99.90
2633;DHT22;1326;48.692;16.870;2022-07-05T03:23:27;20.70;99.90
2633;DHT22;1326;48.692;16.870;2022-07-05T03:25:55;20.70;99.90
2633;DHT22;1326;48.692;16.870;2022-07-05T03:28:22;20.70;99.90
2633;DHT22;1326;48.692;16.870;2022-07-05T03:30:50;20.70;99.90
2633;DHT22;1326;48.692;16.870;2022-07-05T03:33:17;20.60;99.90
2633;DHT22;1326;48.692;16.870;2022-07-05T03:35:45;20.50;99.90
2633;DHT22;1326;48.692;16.870;2022-07-05T03:38:12;20.50;99.90
2633;DHT22;1326;48.692;16.870;2022-07-05T03:40:40;20.50;99.90
2633;DHT22;1326;48.692;16.870;2022-07-05T03:43:07;20.50;99.90
2633;DHT22;1326;48.692;16.870;2022-07-05T03:45:35;20.50;99.90
2633;DHT22;1326;48.692;16.870;2022-07-05T03:48:04;20.60;99.90
2633;DHT22;1326;48.692;16.870;2022-07-05T03:50:31;20.60;99.90
2633;DHT22;1326;48.692;16.870;2022-07-05T03:52:59;20.60;99.90
2633;DHT22;1326;48.692;16.870;2022-07-05T03:55:27;20.60;99.90
2633;DHT22;1326;48.692;16.870;2022-07-05T03:57:54;20.70;99.90
2633;DHT22;1326;48.692;16.870;2022-07-05T04:00:22;20.70;99.90
2633;DHT22;1326;48.692;16.870;2022-07-05T04:02:49;20.70;99.90
2633;DHT22;1326;48.692;16.870;2022-07-05T04:05:17;20.70;99.90
2633;DHT22;1326;48.692;16.870;2022-07-05T04:07:52;20.60;99.90
2633;DHT22;1326;48.692;16.870;2022-07-05T04:10:20;20.60;99.90
2633;DHT22;1326;48.692;16.870;2022-07-05T04:12:49;20.60;99.90
2633;DHT22;1326;48.692;16.870;2022-07-05T04:15:16;20.60;99.90
2633;DHT22;1326;48.692;16.870;2022-07-05T04:20:21;20.60;99.90
2633;DHT22;1326;48.692;16.870;2022-07-05T04:22:49;20.50;99.90
2633;DHT22;1326;48.692;16.870;2022-07-05T04:25:18;20.50;99.90
2633;DHT22;1326;48.692;16.870;2022-07-05T04:27:51;20.60;99.90
2633;DHT22;1326;48.692;16.870;2022-07-05T04:30:20;20.60;99.90
2633;DHT22;1326;48.692;16.870;2022-07-05T04:32:48;20.50;99.90
2633;DHT22;1326;48.692;16.870;2022-07-05T04:35:16;20.60;99.90
2633;DHT22;1326;48.692;16.870;2022-07-05T04:37:45;20.60;99.90
2633;DHT22;1326;48.692;16.870;2022-07-05T04:40:14;20.60;99.90
2633;DHT22;1326;48.692;16.870;2022-07-05T04:42:42;20.60;99.90
2633;DHT22;1326;48.692;16.870;2022-07-05T04:45:10;20.60;99.90
2633;DHT22;1326;48.692;16.870;2022-07-05T04:47:38;20.60;99.90
2633;DHT22;1326;48.692;16.870;2022-07-05T04:50:06;20.60;99.90
2633;DHT22;1326;48.692;16.870;2022-07-05T04:52:34;20.60;99.90
2633;DHT22;1326;48.692;16.870;2022-07-05T04:55:02;20.50;99.90
2633;DHT22;1326;48.692;16.870;2022-07-05T04:57:40;20.50;99.90
2633;DHT22;1326;48.692;16.870;2022-07-05T05:00:10;20.50;99.90
2633;DHT22;1326;48.692;16.870;2022-07-05T05:02:38;20.50;99.90
2633;DHT22;1326;48.692;16.870;2022-07-05T05:05:07;20.50;99.90
2633;DHT22;1326;48.692;16.870;2022-07-05T05:07:35;20.50;99.90
2633;DHT22;1326;48.692;16.870;2022-07-05T05:10:06;20.60;99.90
2633;DHT22;1326;48.692;16.870;2022-07-05T05:12:34;20.60;99.90
2633;DHT22;1326;48.692;16.870;2022-07-05T05:15:02;20.60;99.90
2633;DHT22;1326;48.692;16.870;2022-07-05T05:17:38;20.70;99.90
2633;DHT22;1326;48.692;16.870;2022-07-05T05:20:10;20.70;99.90
2633;DHT22;1326;48.692;16.870;2022-07-05T05:22:36;20.70;99.90
2633;DHT22;1326;48.692;16.870;2022-07-05T05:25:04;20.80;99.90
2633;DHT22;1326;48.692;16.870;2022-07-05T05:27:32;20.80;99.90
2633;DHT22;1326;48.692;16.870;2022-07-05T05:29:59;20.80;99.90
2633;DHT22;1326;48.692;16.870;2022-07-05T05:32:27;21.00;99.90
2633;DHT22;1326;48.692;16.870;2022-07-05T05:34:55;21.00;99.90
2633;DHT22;1326;48.692;16.870;2022-07-05T05:37:22;21.00;99.90
2633;DHT22;1326;48.692;16.870;2022-07-05T05:39:50;21.10;99.90
2633;DHT22;1326;48.692;16.870;2022-07-05T05:42:17;21.10;99.90
2633;DHT22;1326;48.692;16.870;2022-07-05T05:44:45;21.20;99.90
2633;DHT22;1326;48.692;16.870;2022-07-05T05:47:12;21.20;99.90
2633;DHT22;1326;48.692;16.870;2022-07-05T05:49:40;21.20;99.90
2633;DHT22;1326;48.692;16.870;2022-07-05T05:52:08;21.20;99.90
2633;DHT22;1326;48.692;16.870;2022-07-05T05:54:35;21.30;99.90
2633;DHT22;1326;48.692;16.870;2022-07-05T05:57:03;21.30;99.90
2633;DHT22;1326;48.692;16.870;2022-07-05T05:59:30;21.40;99.90
2633;DHT22;1326;48.692;16.870;2022-07-05T06:01:58;21.40;99.90
2633;DHT22;1326;48.692;16.870;2022-07-05T06:04:26;21.40;99.90
2633;DHT22;1326;48.692;16.870;2022-07-05T06:06:53;21.30;99.90
2633;DHT22;1326;48.692;16.870;2022-07-05T06:09:21;21.40;99.90
2633;DHT22;1326;48.692;16.870;2022-07-05T06:11:48;21.40;99.90
2633;DHT22;1326;48.692;16.870;2022-07-05T06:14:16;21.40;99.90
2633;DHT22;1326;48.692;16.870;2022-07-05T06:16:43;21.40;99.90
2633;DHT22;1326;48.692;16.870;2022-07-05T06:19:11;21.50;99.90
2633;DHT22;1326;48.692;16.870;2022-07-05T06:21:38;21.50;99.90
2633;DHT22;1326;48.692;16.870;2022-07-05T06:24:07;21.40;99.90
2633;DHT22;1326;48.692;16.870;2022-07-05T06:26:35;21.50;99.90
2633;DHT22;1326;48.692;16.870;2022-07-05T06:29:02;21.50;99.90
2633;DHT22;1326;48.692;16.870;2022-07-05T06:31:30;21.60;99.90
2633;DHT22;1326;48.692;16.870;2022-07-05T06:33:57;21.70;99.90
2633;DHT22;1326;48.692;16.870;2022-07-05T06:36:25;21.70;99.90
2633;DHT22;1326;48.692;16.870;2022-07-05T06:38:52;21.80;99.90
2633;DHT22;1326;48.692;16.870;2022-07-05T06:41:20;21.90;99.90
2633;DHT22;1326;48.692;16.870;2022-07-05T06:43:47;21.80;99.90
2633;DHT22;1326;48.692;16.870;2022-07-05T06:46:15;21.80;99.90
2633;DHT22;1326;48.692;16.870;2022-07-05T06:48:42;21.70;99.90
2633;DHT22;1326;48.692;16.870;2022-07-05T06:51:10;21.70;99.90
2633;DHT22;1326;48.692;16.870;2022-07-05T06:53:37;21.70;99.90
2633;DHT22;1326;48.692;16.870;2022-07-05T06:56:05;21.80;99.90
2633;DHT22;1326;48.692;16.870;2022-07-05T06:58:33;21.70;99.90
2633;DHT22;1326;48.692;16.870;2022-07-05T07:01:00;21.70;99.90
2633;DHT22;1326;48.692;16.870;2022-07-05T07:03:28;21.80;99.90
2633;DHT22;1326;48.692;16.870;2022-07-05T07:05:56;21.80;99.90
2633;DHT22;1326;48.692;16.870;2022-07-05T07:08:24;21.90;99.90
2633;DHT22;1326;48.692;16.870;2022-07-05T07:11:10;22.00;99.90
2633;DHT22;1326;48.692;16.870;2022-07-05T07:13:37;22.00;99.90
2633;DHT22;1326;48.692;16.870;2022-07-05T07:16:05;22.00;99.90
2633;DHT22;1326;48.692;16.870;2022-07-05T07:18:32;22.00;99.90
2633;DHT22;1326;48.692;16.870;2022-07-05T07:21:02;22.00;99.90
2633;DHT22;1326;48.692;16.870;2022-07-05T07:23:29;22.00;99.90
2633;DHT22;1326;48.692;16.870;2022-07-05T07:25:57;22.10;99.90
2633;DHT22;1326;48.692;16.870;2022-07-05T07:28:25;22.10;99.90
2633;DHT22;1326;48.692;16.870;2022-07-05T07:30:52;22.10;99.90
2633;DHT22;1326;48.692;16.870;2022-07-05T07:33:20;22.10;99.90
2633;DHT22;1326;48.692;16.870;2022-07-05T07:35:47;22.10;99.90
2633;DHT22;1326;48.692;16.870;2022-07-05T07:38:15;22.10;99.90
2633;DHT22;1326;48.692;16.870;2022-07-05T07:40:42;22.10;99.90
2633;DHT22;1326;48.692;16.870;2022-07-05T07:43:10;22.10;99.90
2633;DHT22;1326;48.692;16.870;2022-07-05T07:45:37;22.20;99.90
2633;DHT22;1326;48.692;16.870;2022-07-05T07:48:05;22.20;99.90
2633;DHT22;1326;48.692;16.870;2022-07-05T07:50:33;22.20;99.90
2633;DHT22;1326;48.692;16.870;2022-07-05T07:53:00;22.30;99.90
2633;DHT22;1326;48.692;16.870;2022-07-05T07:55:28;22.40;99.90
2633;DHT22;1326;48.692;16.870;2022-07-05T07:57:56;22.40;99.90
2633;DHT22;1326;48.692;16.870;2022-07-05T08:00:23;22.50;99.90
2633;DHT22;1326;48.692;16.870;2022-07-05T08:02:51;22.40;99.90
2633;DHT22;1326;48.692;16.870;2022-07-05T08:05:18;22.50;99.90
2633;DHT22;1326;48.692;16.870;2022-07-05T08:07:46;22.40;99.90
2633;DHT22;1326;48.692;16.870;2022-07-05T08:10:13;22.40;99.90
2633;DHT22;1326;48.692;16.870;2022-07-05T08:12:41;22.40;99.90
2633;DHT22;1326;48.692;16.870;2022-07-05T08:15:09;22.50;99.90
2633;DHT22;1326;48.692;16.870;2022-07-05T08:17:37;22.40;99.90
2633;DHT22;1326;48.692;16.870;2022-07-05T08:20:07;22.40;99.90
2633;DHT22;1326;48.692;16.870;2022-07-05T08:22:53;22.40;99.90
2633;DHT22;1326;48.692;16.870;2022-07-05T08:25:21;22.40;99.90
2633;DHT22;1326;48.692;16.870;2022-07-05T08:27:48;22.40;99.90
2633;DHT22;1326;48.692;16.870;2022-07-05T08:30:16;22.30;99.90
2633;DHT22;1326;48.692;16.870;2022-07-05T08:32:43;22.30;99.90
2633;DHT22;1326;48.692;16.870;2022-07-05T08:35:11;22.20;99.90
2633;DHT22;1326;48.692;16.870;2022-07-05T08:37:38;22.20;99.90
2633;DHT22;1326;48.692;16.870;2022-07-05T08:40:07;22.20;99.90
2633;DHT22;1326;48.692;16.870;2022-07-05T08:42:36;22.10;99.90
2633;DHT22;1326;48.692;16.870;2022-07-05T08:45:04;22.10;99.90
2633;DHT22;1326;48.692;16.870;2022-07-05T08:47:33;22.10;99.90
2633;DHT22;1326;48.692;16.870;2022-07-05T08:50:03;22.10;99.90
2633;DHT22;1326;48.692;16.870;2022-07-05T08:52:30;22.10;99.90
2633;DHT22;1326;48.692;16.870;2022-07-05T08:54:59;22.20;99.90
2633;DHT22;1326;48.692;16.870;2022-07-05T08:57:27;22.10;99.90
2633;DHT22;1326;48.692;16.870;2022-07-05T08:59:54;22.10;99.90
2633;DHT22;1326;48.692;16.870;2022-07-05T09:02:22;22.20;99.90
2633;DHT22;1326;48.692;16.870;2022-07-05T09:04:50;22.10;99.90
2633;DHT22;1326;48.692;16.870;2022-07-05T09:07:20;22.10;99.90
2633;DHT22;1326;48.692;16.870;2022-07-05T09:09:49;22.00;99.90
2633;DHT22;1326;48.692;16.870;2022-07-05T09:12:18;21.80;99.90
2633;DHT22;1326;48.692;16.870;2022-07-05T09:14:45;21.70;99.90
2633;DHT22;1326;48.692;16.870;2022-07-05T09:17:13;21.50;99.90
2633;DHT22;1326;48.692;16.870;2022-07-05T09:19:41;21.30;99.90
2633;DHT22;1326;48.692;16.870;2022-07-05T09:22:09;21.20;99.90
2633;DHT22;1326;48.692;16.870;2022-07-05T09:24:43;21.00;99.90
2633;DHT22;1326;48.692;16.870;2022-07-05T09:27:11;21.00;99.90
2633;DHT22;1326;48.692;16.870;2022-07-05T09:30:02;20.80;99.90
2633;DHT22;1326;48.692;16.870;2022-07-05T09:32:22;20.80;99.90
2633;DHT22;1326;48.692;16.870;2022-07-05T09:34:40;20.70;99.90
2633;DHT22;1326;48.692;16.870;2022-07-05T09:37:08;20.60;99.90
2633;DHT22;1326;48.692;16.870;2022-07-05T09:39:37;20.50;99.90
2633;DHT22;1326;48.692;16.870;2022-07-05T09:44:48;20.40;99.90
2633;DHT22;1326;48.692;16.870;2022-07-05T09:47:15;20.30;99.90
2633;DHT22;1326;48.692;16.870;2022-07-05T09:49:46;20.20;99.90
2633;DHT22;1326;48.692;16.870;2022-07-05T09:52:37;20.00;99.90
2633;DHT22;1326;48.692;16.870;2022-07-05T09:55:07;19.80;99.90
2633;DHT22;1326;48.692;16.870;2022-07-05T09:57:36;19.70;99.90
2633;DHT22;1326;48.692;16.870;2022-07-05T10:00:10;19.60;99.90
2633;DHT22;1326;48.692;16.870;2022-07-05T10:02:43;19.60;99.90
2633;DHT22;1326;48.692;16.870;2022-07-05T10:07:48;19.60;99.90
2633;DHT22;1326;48.692;16.870;2022-07-05T10:10:14;19.60;99.90
2633;DHT22;1326;48.692;16.870;2022-07-05T10:12:46;19.60;99.90
2633;DHT22;1326;48.692;16.870;2022-07-05T10:15:22;19.60;99.90
2633;DHT22;1326;48.692;16.870;2022-07-05T10:23:11;19.60;99.90
2633;DHT22;1326;48.692;16.870;2022-07-05T10:25:41;19.70;99.90
2633;DHT22;1326;48.692;16.870;2022-07-05T10:28:10;19.70;99.90
2633;DHT22;1326;48.692;16.870;2022-07-05T10:30:38;19.70;99.90
2633;DHT22;1326;48.692;16.870;2022-07-05T10:33:08;19.60;99.90
2633;DHT22;1326;48.692;16.870;2022-07-05T10:35:36;19.50;99.90
2633;DHT22;1326;48.692;16.870;2022-07-05T10:38:04;19.40;99.90
2633;DHT22;1326;48.692;16.870;2022-07-05T10:40:33;19.40;99.90
2633;DHT22;1326;48.692;16.870;2022-07-05T10:43:02;19.40;99.90
2633;DHT22;1326;48.692;16.870;2022-07-05T10:45:35;19.50;99.90
2633;DHT22;1326;48.692;16.870;2022-07-05T10:48:24;19.50;99.90
2633;DHT22;1326;48.692;16.870;2022-07-05T10:51:00;19.50;99.90
2633;DHT22;1326;48.692;16.870;2022-07-05T10:58:39;19.40;99.90
2633;DHT22;1326;48.692;16.870;2022-07-05T11:06:23;19.70;99.90
2633;DHT22;1326;48.692;16.870;2022-07-05T11:14:02;19.70;99.90
2633;DHT22;1326;48.692;16.870;2022-07-05T11:16:32;19.60;99.90
2633;DHT22;1326;48.692;16.870;2022-07-05T11:19:08;19.60;99.90
2633;DHT22;1326;48.692;16.870;2022-07-05T11:21:59;19.70;99.90
2633;DHT22;1326;48.692;16.870;2022-07-05T11:24:24;19.60;99.90
2633;DHT22;1326;48.692;16.870;2022-07-05T11:26:53;19.70;99.90
2633;DHT22;1326;48.692;16.870;2022-07-05T11:29:42;19.70;99.90
2633;DHT22;1326;48.692;16.870;2022-07-05T11:32:12;19.70;99.90
2633;DHT22;1326;48.692;16.870;2022-07-05T11:34:41;19.70;99.90
2633;DHT22;1326;48.692;16.870;2022-07-05T11:39:46;19.70;99.90
2633;DHT22;1326;48.692;16.870;2022-07-05T11:42:22;19.80;99.90
2633;DHT22;1326;48.692;16.870;2022-07-05T11:44:50;19.80;99.90
2633;DHT22;1326;48.692;16.870;2022-07-05T11:47:18;19.90;99.90
2633;DHT22;1326;48.692;16.870;2022-07-05T11:49:54;19.90;99.90
2633;DHT22;1326;48.692;16.870;2022-07-05T11:52:34;19.90;99.90
2633;DHT22;1326;48.692;16.870;2022-07-05T11:54:59;19.90;99.90
2633;DHT22;1326;48.692;16.870;2022-07-05T11:57:27;20.00;99.90
2633;DHT22;1326;48.692;16.870;2022-07-05T11:59:54;20.00;99.90
2633;DHT22;1326;48.692;16.870;2022-07-05T12:02:22;20.10;99.90
2633;DHT22;1326;48.692;16.870;2022-07-05T12:04:54;20.10;99.90
2633;DHT22;1326;48.692;16.870;2022-07-05T12:07:29;20.10;99.90
2633;DHT22;1326;48.692;16.870;2022-07-05T12:09:58;20.10;99.90
2633;DHT22;1326;48.692;16.870;2022-07-05T12:12:44;20.20;99.90
2633;DHT22;1326;48.692;16.870;2022-07-05T12:15:21;20.30;99.90
2633;DHT22;1326;48.692;16.870;2022-07-05T12:17:50;20.30;99.90
2633;DHT22;1326;48.692;16.870;2022-07-05T12:20:22;20.40;99.90
2633;DHT22;1326;48.692;16.870;2022-07-05T12:22:51;20.40;99.90
2633;DHT22;1326;48.692;16.870;2022-07-05T12:25:20;20.50;99.90
2633;DHT22;1326;48.692;16.870;2022-07-05T12:27:50;20.60;99.90
2633;DHT22;1326;48.692;16.870;2022-07-05T12:30:18;20.60;99.90
2633;DHT22;1326;48.692;16.870;2022-07-05T12:33:05;20.60;99.90
2633;DHT22;1326;48.692;16.870;2022-07-05T12:35:41;20.70;99.90
2633;DHT22;1326;48.692;16.870;2022-07-05T12:38:13;20.70;99.90
2633;DHT22;1326;48.692;16.870;2022-07-05T12:40:46;20.60;99.90
2633;DHT22;1326;48.692;16.870;2022-07-05T12:43:15;20.70;99.90
2633;DHT22;1326;48.692;16.870;2022-07-05T12:45:58;20.70;99.90
2633;DHT22;1326;48.692;16.870;2022-07-05T12:48:13;20.80;99.90
2633;DHT22;1326;48.692;16.870;2022-07-05T12:50:51;20.80;99.90
2633;DHT22;1326;48.692;16.870;2022-07-05T12:53:19;20.80;99.90
2633;DHT22;1326;48.692;16.870;2022-07-05T12:56:08;20.90;99.90
2633;DHT22;1326;48.692;16.870;2022-07-05T12:58:55;20.90;99.90
2633;DHT22;1326;48.692;16.870;2022-07-05T13:01:28;20.90;99.90
2633;DHT22;1326;48.692;16.870;2022-07-05T13:04:12;21.10;99.90
2633;DHT22;1326;48.692;16.870;2022-07-05T13:06:49;21.00;99.90
2633;DHT22;1326;48.692;16.870;2022-07-05T13:12:12;21.30;99.90
2633;DHT22;1326;48.692;16.870;2022-07-05T13:14:46;21.40;99.90
2633;DHT22;1326;48.692;16.870;2022-07-05T13:17:16;21.50;99.90
2633;DHT22;1326;48.692;16.870;2022-07-05T13:19:45;21.50;99.90
2633;DHT22;1326;48.692;16.870;2022-07-05T13:22:13;21.50;99.90
2633;DHT22;1326;48.692;16.870;2022-07-05T13:24:41;21.70;99.90
2633;DHT22;1326;48.692;16.870;2022-07-05T13:27:10;21.70;99.90
2633;DHT22;1326;48.692;16.870;2022-07-05T13:29:40;21.70;99.90
2633;DHT22;1326;48.692;16.870;2022-07-05T13:32:08;21.80;99.90
2633;DHT22;1326;48.692;16.870;2022-07-05T13:34:36;21.70;99.90
2633;DHT22;1326;48.692;16.870;2022-07-05T13:37:04;21.70;99.90
2633;DHT22;1326;48.692;16.870;2022-07-05T13:39:31;21.60;99.90
2633;DHT22;1326;48.692;16.870;2022-07-05T13:41:59;21.60;99.90
2633;DHT22;1326;48.692;16.870;2022-07-05T13:44:26;21.60;99.90
2633;DHT22;1326;48.692;16.870;2022-07-05T13:46:54;21.50;99.90
2633;DHT22;1326;48.692;16.870;2022-07-05T13:49:21;21.50;99.90
2633;DHT22;1326;48.692;16.870;2022-07-05T13:51:49;21.30;99.90
2633;DHT22;1326;48.692;16.870;2022-07-05T13:54:17;21.20;99.90
2633;DHT22;1326;48.692;16.870;2022-07-05T13:56:44;21.10;99.90
2633;DHT22;1326;48.692;16.870;2022-07-05T13:59:12;21.00;99.90
2633;DHT22;1326;48.692;16.870;2022-07-05T14:01:40;20.90;99.90
2633;DHT22;1326;48.692;16.870;2022-07-05T14:04:07;20.80;99.90
2633;DHT22;1326;48.692;16.870;2022-07-05T14:06:35;20.80;99.90
2633;DHT22;1326;48.692;16.870;2022-07-05T14:09:04;20.70;99.90
2633;DHT22;1326;48.692;16.870;2022-07-05T14:11:31;20.70;99.90
2633;DHT22;1326;48.692;16.870;2022-07-05T14:13:59;20.70;99.90
2633;DHT22;1326;48.692;16.870;2022-07-05T14:16:27;20.60;99.90
2633;DHT22;1326;48.692;16.870;2022-07-05T14:18:54;20.60;99.90
2633;DHT22;1326;48.692;16.870;2022-07-05T14:21:22;20.60;99.90
2633;DHT22;1326;48.692;16.870;2022-07-05T14:23:50;20.60;99.90
2633;DHT22;1326;48.692;16.870;2022-07-05T14:26:17;20.70;99.90
2633;DHT22;1326;48.692;16.870;2022-07-05T14:28:45;20.60;99.90
2633;DHT22;1326;48.692;16.870;2022-07-05T14:31:13;20.60;99.90
2633;DHT22;1326;48.692;16.870;2022-07-05T14:33:40;20.50;99.90
2633;DHT22;1326;48.692;16.870;2022-07-05T14:36:08;20.50;99.90
2633;DHT22;1326;48.692;16.870;2022-07-05T14:38:36;20.50;99.90
2633;DHT22;1326;48.692;16.870;2022-07-05T14:41:03;20.60;99.90
2633;DHT22;1326;48.692;16.870;2022-07-05T14:43:31;20.60;99.90
2633;DHT22;1326;48.692;16.870;2022-07-05T14:45:59;20.60;99.90
2633;DHT22;1326;48.692;16.870;2022-07-05T14:48:26;20.60;99.90
2633;DHT22;1326;48.692;16.870;2022-07-05T14:50:54;20.70;99.90
2633;DHT22;1326;48.692;16.870;2022-07-05T14:53:21;20.60;99.90
2633;DHT22;1326;48.692;16.870;2022-07-05T14:55:49;20.60;99.90
2633;DHT22;1326;48.692;16.870;2022-07-05T14:58:16;20.60;99.90
2633;DHT22;1326;48.692;16.870;2022-07-05T15:00:44;20.40;99.90
2633;DHT22;1326;48.692;16.870;2022-07-05T15:03:11;20.40;99.90
2633;DHT22;1326;48.692;16.870;2022-07-05T15:05:39;20.20;99.90
2633;DHT22;1326;48.692;16.870;2022-07-05T15:08:06;20.20;99.90
2633;DHT22;1326;48.692;16.870;2022-07-05T15:10:34;20.10;99.90
2633;DHT22;1326;48.692;16.870;2022-07-05T15:13:02;20.10;99.90
2633;DHT22;1326;48.692;16.870;2022-07-05T15:15:30;20.10;99.90
2633;DHT22;1326;48.692;16.870;2022-07-05T15:17:57;20.00;99.90
2633;DHT22;1326;48.692;16.870;2022-07-05T15:20:25;20.00;99.90
2633;DHT22;1326;48.692;16.870;2022-07-05T15:22:53;20.00;99.90
2633;DHT22;1326;48.692;16.870;2022-07-05T15:25:20;20.10;99.90
2633;DHT22;1326;48.692;16.870;2022-07-05T15:27:48;20.10;99.90
2633;DHT22;1326;48.692;16.870;2022-07-05T15:30:17;20.10;99.90
2633;DHT22;1326;48.692;16.870;2022-07-05T15:32:46;20.10;99.90
2633;DHT22;1326;48.692;16.870;2022-07-05T15:35:14;20.20;99.90
2633;DHT22;1326;48.692;16.870;2022-07-05T15:37:44;20.10;99.90
2633;DHT22;1326;48.692;16.870;2022-07-05T15:40:12;20.20;99.90
2633;DHT22;1326;48.692;16.870;2022-07-05T15:42:39;20.20;99.90
2633;DHT22;1326;48.692;16.870;2022-07-05T15:45:08;20.20;99.90
2633;DHT22;1326;48.692;16.870;2022-07-05T15:47:35;20.20;99.90
2633;DHT22;1326;48.692;16.870;2022-07-05T15:50:06;20.20;99.90
2633;DHT22;1326;48.692;16.870;2022-07-05T15:52:36;20.20;99.90
2633;DHT22;1326;48.692;16.870;2022-07-05T15:55:05;20.20;99.90
2633;DHT22;1326;48.692;16.870;2022-07-05T15:57:33;20.30;99.90
2633;DHT22;1326;48.692;16.870;2022-07-05T16:00:02;20.40;99.90
2633;DHT22;1326;48.692;16.870;2022-07-05T16:02:30;20.40;99.90
2633;DHT22;1326;48.692;16.870;2022-07-05T16:04:57;20.40;99.90
2633;DHT22;1326;48.692;16.870;2022-07-05T16:07:25;20.40;99.90
2633;DHT22;1326;48.692;16.870;2022-07-05T16:09:52;20.50;99.90
2633;DHT22;1326;48.692;16.870;2022-07-05T16:12:20;20.50;99.90
2633;DHT22;1326;48.692;16.870;2022-07-05T16:14:48;20.60;99.90
2633;DHT22;1326;48.692;16.870;2022-07-05T16:17:16;20.60;99.90
2633;DHT22;1326;48.692;16.870;2022-07-05T16:19:43;20.60;99.90
2633;DHT22;1326;48.692;16.870;2022-07-05T16:22:11;20.60;99.90
2633;DHT22;1326;48.692;16.870;2022-07-05T16:24:38;20.60;99.90
2633;DHT22;1326;48.692;16.870;2022-07-05T16:27:06;20.50;99.90
2633;DHT22;1326;48.692;16.870;2022-07-05T16:29:33;20.50;99.90